sensor_id;sensor_type;location;lat;lon;timestamp;P1;durP1;ratioP1;P2;durP2;ratioP2
44145;SDS011;29809;52.432;4.780;2023-04-06T00:00:34;8.55;;;6.68;;
44145;SDS011;29809;52.432;4.780;2023-04-06T00:03:00;8.38;;;7.13;;
44145;SDS011;29809;52.432;4.780;2023-04-06T00:05:25;7.68;;;6.85;;
44145;SDS011;29809;52.432;4.780;2023-04-06T00:07:52;9.10;;;7.38;;
44145;SDS011;29809;52.432;4.780;2023-04-06T00:10:19;8.50;;;7.60;;
44145;SDS011;29809;52.432;4.780;2023-04-06T00:12:44;11.40;;;6.72;;
44145;SDS011;29809;52.432;4.780;2023-04-06T00:15:09;8.73;;;6.80;;
44145;SDS011;29809;52.432;4.780;2023-04-06T00:17:35;9.70;;;7.38;;
44145;SDS011;29809;52.432;4.780;2023-04-06T00:20:00;8.52;;;6.82;;
44145;SDS011;29809;52.432;4.780;2023-04-06T00:22:25;9.13;;;6.55;;
44145;SDS011;29809;52.432;4.780;2023-04-06T00:24:51;9.70;;;7.15;;
44145;SDS011;29809;52.432;4.780;2023-04-06T00:27:16;7.07;;;5.97;;
44145;SDS011;29809;52.432;4.780;2023-04-06T00:29:43;7.70;;;6.85;;
44145;SDS011;29809;52.432;4.780;2023-04-06T00:32:08;8.88;;;6.82;;
44145;SDS011;29809;52.432;4.780;2023-04-06T00:34:34;7.07;;;6.10;;
44145;SDS011;29809;52.432;4.780;2023-04-06T00:36:59;6.85;;;5.88;;
44145;SDS011;29809;52.432;4.780;2023-04-06T00:39:25;6.15;;;5.53;;
44145;SDS011;29809;52.432;4.780;2023-04-06T00:41:50;6.05;;;5.40;;
44145;SDS011;29809;52.432;4.780;2023-04-06T00:44:16;7.60;;;6.10;;
44145;SDS011;29809;52.432;4.780;2023-04-06T00:46:42;6.20;;;5.60;;
44145;SDS011;29809;52.432;4.780;2023-04-06T00:49:08;7.15;;;6.45;;
44145;SDS011;29809;52.432;4.780;2023-04-06T00:51:33;9.45;;;6.53;;
44145;SDS011;29809;52.432;4.780;2023-04-06T00:53:58;6.97;;;5.68;;
44145;SDS011;29809;52.432;4.780;2023-04-06T00:56:24;6.20;;;5.60;;
44145;SDS011;29809;52.432;4.780;2023-04-06T00:58:51;6.72;;;5.63;;
44145;SDS011;29809;52.432;4.780;2023-04-06T01:01:16;5.95;;;5.35;;
44145;SDS011;29809;52.432;4.780;2023-04-06T01:03:41;6.75;;;5.85;;
44145;SDS011;29809;52.432;4.780;2023-04-06T01:06:07;7.60;;;5.72;;
44145;SDS011;29809;52.432;4.780;2023-04-06T01:08:32;6.93;;;5.45;;
44145;SDS011;29809;52.432;4.780;2023-04-06T01:10:58;6.22;;;5.63;;
44145;SDS011;29809;52.432;4.780;2023-04-06T01:13:25;8.05;;;6.10;;
44145;SDS011;29809;52.432;4.780;2023-04-06T01:15:51;5.45;;;4.95;;
44145;SDS011;29809;52.432;4.780;2023-04-06T01:18:16;5.85;;;5.25;;
44145;SDS011;29809;52.432;4.780;2023-04-06T01:20:41;6.85;;;5.88;;
44145;SDS011;29809;52.432;4.780;2023-04-06T01:23:06;5.97;;;5.38;;
44145;SDS011;29809;52.432;4.780;2023-04-06T01:25:32;5.25;;;4.75;;
44145;SDS011;29809;52.432;4.780;2023-04-06T01:27:57;5.75;;;4.90;;
44145;SDS011;29809;52.432;4.780;2023-04-06T01:30:22;5.60;;;5.10;;
44145;SDS011;29809;52.432;4.780;2023-04-06T01:32:47;15.57;;;4.93;;
44145;SDS011;29809;52.432;4.780;2023-04-06T01:35:13;5.85;;;4.78;;
44145;SDS011;29809;52.432;4.780;2023-04-06T01:37:38;5.43;;;4.85;;
44145;SDS011;29809;52.432;4.780;2023-04-06T01:40:03;5.70;;;5.05;;
44145;SDS011;29809;52.432;4.780;2023-04-06T01:42:29;6.38;;;4.95;;
44145;SDS011;29809;52.432;4.780;2023-04-06T01:44:55;5.80;;;4.82;;
44145;SDS011;29809;52.432;4.780;2023-04-06T01:47:20;5.75;;;4.78;;
44145;SDS011;29809;52.432;4.780;2023-04-06T01:49:45;6.03;;;5.00;;
44145;SDS011;29809;52.432;4.780;2023-04-06T01:52:11;5.72;;;4.68;;
44145;SDS011;29809;52.432;4.780;2023-04-06T01:54:36;6.63;;;4.75;;
44145;SDS011;29809;52.432;4.780;2023-04-06T01:57:01;5.18;;;4.10;;
44145;SDS011;29809;52.432;4.780;2023-04-06T01:59:26;5.88;;;4.55;;
44145;SDS011;29809;52.432;4.780;2023-04-06T02:01:51;5.50;;;4.90;;
44145;SDS011;29809;52.432;4.780;2023-04-06T02:04:17;7.13;;;4.68;;
44145;SDS011;29809;52.432;4.780;2023-04-06T02:06:42;7.85;;;4.60;;
44145;SDS011;29809;52.432;4.780;2023-04-06T02:09:07;6.15;;;4.45;;
44145;SDS011;29809;52.432;4.780;2023-04-06T02:11:32;5.13;;;4.60;;
44145;SDS011;29809;52.432;4.780;2023-04-06T02:13:58;5.07;;;4.43;;
44145;SDS011;29809;52.432;4.780;2023-04-06T02:16:25;5.28;;;3.95;;
44145;SDS011;29809;52.432;4.780;2023-04-06T02:18:50;6.65;;;4.68;;
44145;SDS011;29809;52.432;4.780;2023-04-06T02:21:15;4.43;;;3.90;;
44145;SDS011;29809;52.432;4.780;2023-04-06T02:23:44;4.97;;;4.38;;
44145;SDS011;29809;52.432;4.780;2023-04-06T02:26:10;5.15;;;4.65;;
44145;SDS011;29809;52.432;4.780;2023-04-06T02:28:35;7.70;;;4.60;;
44145;SDS011;29809;52.432;4.780;2023-04-06T02:31:00;6.80;;;4.72;;
44145;SDS011;29809;52.432;4.780;2023-04-06T02:33:25;4.50;;;4.10;;
44145;SDS011;29809;52.432;4.780;2023-04-06T02:35:51;5.38;;;4.25;;
44145;SDS011;29809;52.432;4.780;2023-04-06T02:38:16;5.60;;;4.15;;
44145;SDS011;29809;52.432;4.780;2023-04-06T02:40:41;5.10;;;4.18;;
44145;SDS011;29809;52.432;4.780;2023-04-06T02:43:06;5.40;;;4.50;;
44145;SDS011;29809;52.432;4.780;2023-04-06T02:45:31;5.25;;;3.95;;
44145;SDS011;29809;52.432;4.780;2023-04-06T02:47:57;5.15;;;4.30;;
44145;SDS011;29809;52.432;4.780;2023-04-06T02:50:22;5.45;;;4.57;;
44145;SDS011;29809;52.432;4.780;2023-04-06T02:52:47;4.40;;;3.90;;
44145;SDS011;29809;52.432;4.780;2023-04-06T02:55:12;4.47;;;4.05;;
44145;SDS011;29809;52.432;4.780;2023-04-06T02:57:37;4.35;;;3.83;;
44145;SDS011;29809;52.432;4.780;2023-04-06T03:00:03;5.15;;;4.13;;
44145;SDS011;29809;52.432;4.780;2023-04-06T03:02:28;6.90;;;4.07;;
44145;SDS011;29809;52.432;4.780;2023-04-06T03:04:53;4.88;;;4.38;;
44145;SDS011;29809;52.432;4.780;2023-04-06T03:07:19;5.68;;;4.72;;
44145;SDS011;29809;52.432;4.780;2023-04-06T03:09:44;5.68;;;4.10;;
44145;SDS011;29809;52.432;4.780;2023-04-06T03:12:09;4.93;;;4.15;;
44145;SDS011;29809;52.432;4.780;2023-04-06T03:14:34;4.93;;;4.43;;
44145;SDS011;29809;52.432;4.780;2023-04-06T03:16:59;5.85;;;4.05;;
44145;SDS011;29809;52.432;4.780;2023-04-06T03:19:25;4.95;;;4.05;;
44145;SDS011;29809;52.432;4.780;2023-04-06T03:21:50;5.40;;;3.85;;
44145;SDS011;29809;52.432;4.780;2023-04-06T03:24:15;4.57;;;4.15;;
44145;SDS011;29809;52.432;4.780;2023-04-06T03:26:41;4.80;;;4.30;;
44145;SDS011;29809;52.432;4.780;2023-04-06T03:29:06;5.30;;;4.80;;
44145;SDS011;29809;52.432;4.780;2023-04-06T03:31:31;6.07;;;4.63;;
44145;SDS011;29809;52.432;4.780;2023-04-06T03:33:56;4.35;;;3.95;;
44145;SDS011;29809;52.432;4.780;2023-04-06T03:36:22;4.45;;;4.05;;
44145;SDS011;29809;52.432;4.780;2023-04-06T03:38:47;4.47;;;3.50;;
44145;SDS011;29809;52.432;4.780;2023-04-06T03:41:12;5.72;;;5.10;;
44145;SDS011;29809;52.432;4.780;2023-04-06T03:43:37;4.80;;;4.40;;
44145;SDS011;29809;52.432;4.780;2023-04-06T03:46:03;6.68;;;4.03;;
44145;SDS011;29809;52.432;4.780;2023-04-06T03:48:28;4.35;;;4.00;;
44145;SDS011;29809;52.432;4.780;2023-04-06T03:50:53;5.32;;;3.95;;
44145;SDS011;29809;52.432;4.780;2023-04-06T03:53:18;4.93;;;4.28;;
44145;SDS011;29809;52.432;4.780;2023-04-06T03:55:44;4.95;;;4.32;;
44145;SDS011;29809;52.432;4.780;2023-04-06T03:58:09;5.00;;;4.07;;
44145;SDS011;29809;52.432;4.780;2023-04-06T04:00:34;5.07;;;4.55;;
44145;SDS011;29809;52.432;4.780;2023-04-06T04:03:00;4.88;;;4.38;;
44145;SDS011;29809;52.432;4.780;2023-04-06T04:05:27;5.15;;;4.65;;
44145;SDS011;29809;52.432;4.780;2023-04-06T04:07:52;4.88;;;4.47;;
44145;SDS011;29809;52.432;4.780;2023-04-06T04:10:17;4.57;;;4.18;;
44145;SDS011;29809;52.432;4.780;2023-04-06T04:12:43;5.13;;;4.63;;
44145;SDS011;29809;52.432;4.780;2023-04-06T04:15:08;5.05;;;4.55;;
44145;SDS011;29809;52.432;4.780;2023-04-06T04:17:33;6.88;;;4.20;;
44145;SDS011;29809;52.432;4.780;2023-04-06T04:19:58;4.88;;;4.40;;
44145;SDS011;29809;52.432;4.780;2023-04-06T04:22:24;6.93;;;5.43;;
44145;SDS011;29809;52.432;4.780;2023-04-06T04:24:49;5.00;;;4.53;;
44145;SDS011;29809;52.432;4.780;2023-04-06T04:27:14;5.13;;;4.63;;
44145;SDS011;29809;52.432;4.780;2023-04-06T04:29:40;4.93;;;4.35;;
44145;SDS011;29809;52.432;4.780;2023-04-06T04:32:05;6.53;;;4.75;;
44145;SDS011;29809;52.432;4.780;2023-04-06T04:34:30;7.88;;;5.05;;
44145;SDS011;29809;52.432;4.780;2023-04-06T04:36:56;7.05;;;4.63;;
44145;SDS011;29809;52.432;4.780;2023-04-06T04:39:21;6.18;;;4.72;;
44145;SDS011;29809;52.432;4.780;2023-04-06T04:41:46;6.47;;;4.75;;
44145;SDS011;29809;52.432;4.780;2023-04-06T04:44:12;5.88;;;4.25;;
44145;SDS011;29809;52.432;4.780;2023-04-06T04:46:37;11.60;;;4.97;;
44145;SDS011;29809;52.432;4.780;2023-04-06T04:49:02;6.78;;;5.20;;
44145;SDS011;29809;52.432;4.780;2023-04-06T04:51:27;7.03;;;4.85;;
44145;SDS011;29809;52.432;4.780;2023-04-06T04:53:53;10.38;;;5.25;;
44145;SDS011;29809;52.432;4.780;2023-04-06T04:56:18;8.55;;;4.78;;
44145;SDS011;29809;52.432;4.780;2023-04-06T04:58:43;10.27;;;5.47;;
44145;SDS011;29809;52.432;4.780;2023-04-06T05:01:08;9.63;;;5.45;;
44145;SDS011;29809;52.432;4.780;2023-04-06T05:03:34;8.18;;;5.53;;
44145;SDS011;29809;52.432;4.780;2023-04-06T05:06:00;5.53;;;4.70;;
44145;SDS011;29809;52.432;4.780;2023-04-06T05:08:25;7.15;;;4.90;;
44145;SDS011;29809;52.432;4.780;2023-04-06T05:10:51;9.07;;;5.32;;
44145;SDS011;29809;52.432;4.780;2023-04-06T05:13:16;6.07;;;5.18;;
44145;SDS011;29809;52.432;4.780;2023-04-06T05:15:41;7.38;;;5.75;;
44145;SDS011;29809;52.432;4.780;2023-04-06T05:18:07;30.70;;;13.10;;
44145;SDS011;29809;52.432;4.780;2023-04-06T05:20:33;80.93;;;25.13;;
44145;SDS011;29809;52.432;4.780;2023-04-06T05:22:58;60.97;;;22.52;;
44145;SDS011;29809;52.432;4.780;2023-04-06T05:25:23;56.50;;;20.25;;
44145;SDS011;29809;52.432;4.780;2023-04-06T05:27:48;43.03;;;17.83;;
44145;SDS011;29809;52.432;4.780;2023-04-06T05:30:14;45.90;;;18.40;;
44145;SDS011;29809;52.432;4.780;2023-04-06T05:32:39;38.67;;;16.60;;
44145;SDS011;29809;52.432;4.780;2023-04-06T05:35:05;39.15;;;16.13;;
44145;SDS011;29809;52.432;4.780;2023-04-06T05:37:30;36.60;;;15.77;;
44145;SDS011;29809;52.432;4.780;2023-04-06T05:39:56;30.92;;;13.50;;
44145;SDS011;29809;52.432;4.780;2023-04-06T05:42:22;25.90;;;13.88;;
44145;SDS011;29809;52.432;4.780;2023-04-06T05:44:47;32.35;;;12.48;;
44145;SDS011;29809;52.432;4.780;2023-04-06T05:47:12;24.27;;;12.40;;
44145;SDS011;29809;52.432;4.780;2023-04-06T05:49:37;28.55;;;13.73;;
44145;SDS011;29809;52.432;4.780;2023-04-06T05:52:03;28.70;;;10.50;;
44145;SDS011;29809;52.432;4.780;2023-04-06T05:54:29;22.30;;;10.70;;
44145;SDS011;29809;52.432;4.780;2023-04-06T05:56:54;26.38;;;11.73;;
44145;SDS011;29809;52.432;4.780;2023-04-06T05:59:19;22.23;;;11.32;;
44145;SDS011;29809;52.432;4.780;2023-04-06T06:01:45;20.40;;;10.02;;
44145;SDS011;29809;52.432;4.780;2023-04-06T06:04:11;10.40;;;7.13;;
44145;SDS011;29809;52.432;4.780;2023-04-06T06:06:36;14.27;;;7.55;;
44145;SDS011;29809;52.432;4.780;2023-04-06T06:09:02;19.65;;;8.27;;
44145;SDS011;29809;52.432;4.780;2023-04-06T06:11:28;11.18;;;7.18;;
44145;SDS011;29809;52.432;4.780;2023-04-06T06:13:54;13.73;;;7.72;;
44145;SDS011;29809;52.432;4.780;2023-04-06T06:16:19;15.38;;;7.82;;
44145;SDS011;29809;52.432;4.780;2023-04-06T06:18:45;13.10;;;7.47;;
44145;SDS011;29809;52.432;4.780;2023-04-06T06:21:10;12.95;;;7.60;;
44145;SDS011;29809;52.432;4.780;2023-04-06T06:23:37;12.60;;;7.75;;
44145;SDS011;29809;52.432;4.780;2023-04-06T06:26:02;14.82;;;7.68;;
44145;SDS011;29809;52.432;4.780;2023-04-06T06:28:28;16.85;;;8.25;;
44145;SDS011;29809;52.432;4.780;2023-04-06T06:30:53;19.33;;;8.15;;
44145;SDS011;29809;52.432;4.780;2023-04-06T06:33:18;14.02;;;7.88;;
44145;SDS011;29809;52.432;4.780;2023-04-06T06:35:43;11.52;;;7.30;;
44145;SDS011;29809;52.432;4.780;2023-04-06T06:38:09;12.75;;;6.97;;
44145;SDS011;29809;52.432;4.780;2023-04-06T06:40:34;10.30;;;6.72;;
44145;SDS011;29809;52.432;4.780;2023-04-06T06:42:59;18.83;;;9.20;;
44145;SDS011;29809;52.432;4.780;2023-04-06T06:45:25;12.50;;;7.25;;
44145;SDS011;29809;52.432;4.780;2023-04-06T06:47:50;12.00;;;7.18;;
44145;SDS011;29809;52.432;4.780;2023-04-06T06:50:16;9.02;;;6.78;;
44145;SDS011;29809;52.432;4.780;2023-04-06T06:52:41;11.52;;;5.82;;
44145;SDS011;29809;52.432;4.780;2023-04-06T06:55:07;12.43;;;7.20;;
44145;SDS011;29809;52.432;4.780;2023-04-06T06:57:32;10.50;;;7.03;;
44145;SDS011;29809;52.432;4.780;2023-04-06T06:59:58;9.52;;;6.93;;
44145;SDS011;29809;52.432;4.780;2023-04-06T07:02:24;10.23;;;7.32;;
44145;SDS011;29809;52.432;4.780;2023-04-06T07:04:50;9.13;;;6.43;;
44145;SDS011;29809;52.432;4.780;2023-04-06T07:07:15;11.15;;;6.88;;
44145;SDS011;29809;52.432;4.780;2023-04-06T07:09:41;9.75;;;7.32;;
44145;SDS011;29809;52.432;4.780;2023-04-06T07:12:06;8.77;;;6.82;;
44145;SDS011;29809;52.432;4.780;2023-04-06T07:14:31;9.00;;;7.03;;
44145;SDS011;29809;52.432;4.780;2023-04-06T07:16:57;7.15;;;6.38;;
44145;SDS011;29809;52.432;4.780;2023-04-06T07:19:22;9.82;;;6.45;;
44145;SDS011;29809;52.432;4.780;2023-04-06T07:21:47;9.73;;;6.85;;
44145;SDS011;29809;52.432;4.780;2023-04-06T07:24:14;10.98;;;7.20;;
44145;SDS011;29809;52.432;4.780;2023-04-06T07:26:39;10.60;;;8.18;;
44145;SDS011;29809;52.432;4.780;2023-04-06T07:29:05;9.07;;;7.57;;
44145;SDS011;29809;52.432;4.780;2023-04-06T07:31:30;8.77;;;6.88;;
44145;SDS011;29809;52.432;4.780;2023-04-06T07:33:55;9.93;;;7.70;;
44145;SDS011;29809;52.432;4.780;2023-04-06T07:36:21;10.25;;;7.70;;
44145;SDS011;29809;52.432;4.780;2023-04-06T07:38:46;9.40;;;7.80;;
44145;SDS011;29809;52.432;4.780;2023-04-06T07:41:11;10.40;;;6.90;;
44145;SDS011;29809;52.432;4.780;2023-04-06T07:43:37;10.18;;;7.90;;
44145;SDS011;29809;52.432;4.780;2023-04-06T07:46:03;11.95;;;8.25;;
44145;SDS011;29809;52.432;4.780;2023-04-06T07:48:28;11.77;;;8.43;;
44145;SDS011;29809;52.432;4.780;2023-04-06T07:51:00;12.48;;;7.43;;
44145;SDS011;29809;52.432;4.780;2023-04-06T07:53:25;11.30;;;7.80;;
44145;SDS011;29809;52.432;4.780;2023-04-06T07:55:50;11.95;;;8.43;;
44145;SDS011;29809;52.432;4.780;2023-04-06T07:58:16;11.82;;;8.20;;
44145;SDS011;29809;52.432;4.780;2023-04-06T08:00:41;12.10;;;7.90;;
44145;SDS011;29809;52.432;4.780;2023-04-06T08:03:06;10.20;;;7.07;;
44145;SDS011;29809;52.432;4.780;2023-04-06T08:05:32;9.70;;;7.93;;
44145;SDS011;29809;52.432;4.780;2023-04-06T08:07:57;9.90;;;7.60;;
44145;SDS011;29809;52.432;4.780;2023-04-06T08:10:22;11.00;;;8.45;;
44145;SDS011;29809;52.432;4.780;2023-04-06T08:12:47;12.45;;;8.73;;
44145;SDS011;29809;52.432;4.780;2023-04-06T08:15:13;9.90;;;7.30;;
44145;SDS011;29809;52.432;4.780;2023-04-06T08:17:38;8.75;;;7.65;;
44145;SDS011;29809;52.432;4.780;2023-04-06T08:20:03;11.40;;;8.15;;
44145;SDS011;29809;52.432;4.780;2023-04-06T08:22:29;9.10;;;8.13;;
44145;SDS011;29809;52.432;4.780;2023-04-06T08:24:54;11.57;;;8.30;;
44145;SDS011;29809;52.432;4.780;2023-04-06T08:27:19;9.43;;;8.18;;
44145;SDS011;29809;52.432;4.780;2023-04-06T08:29:44;9.90;;;8.70;;
44145;SDS011;29809;52.432;4.780;2023-04-06T08:32:10;11.73;;;8.80;;
44145;SDS011;29809;52.432;4.780;2023-04-06T08:34:35;11.38;;;8.18;;
44145;SDS011;29809;52.432;4.780;2023-04-06T08:37:01;12.50;;;8.30;;
44145;SDS011;29809;52.432;4.780;2023-04-06T08:39:26;10.05;;;7.68;;
44145;SDS011;29809;52.432;4.780;2023-04-06T08:41:52;9.98;;;7.75;;
44145;SDS011;29809;52.432;4.780;2023-04-06T08:44:18;10.13;;;8.98;;
44145;SDS011;29809;52.432;4.780;2023-04-06T08:46:43;11.02;;;8.23;;
44145;SDS011;29809;52.432;4.780;2023-04-06T08:49:08;10.23;;;8.00;;
44145;SDS011;29809;52.432;4.780;2023-04-06T08:51:34;9.35;;;7.53;;
44145;SDS011;29809;52.432;4.780;2023-04-06T08:53:59;9.85;;;7.75;;
44145;SDS011;29809;52.432;4.780;2023-04-06T08:56:25;9.02;;;8.13;;
44145;SDS011;29809;52.432;4.780;2023-04-06T08:58:51;9.63;;;7.65;;
44145;SDS011;29809;52.432;4.780;2023-04-06T09:01:18;10.85;;;8.38;;
44145;SDS011;29809;52.432;4.780;2023-04-06T09:03:45;9.98;;;8.23;;
44145;SDS011;29809;52.432;4.780;2023-04-06T09:06:11;9.32;;;8.05;;
44145;SDS011;29809;52.432;4.780;2023-04-06T09:08:41;9.73;;;7.65;;
44145;SDS011;29809;52.432;4.780;2023-04-06T09:11:06;8.45;;;7.03;;
44145;SDS011;29809;52.432;4.780;2023-04-06T09:13:32;9.15;;;7.45;;
44145;SDS011;29809;52.432;4.780;2023-04-06T09:16:08;8.80;;;7.50;;
44145;SDS011;29809;52.432;4.780;2023-04-06T09:18:33;10.38;;;8.43;;
44145;SDS011;29809;52.432;4.780;2023-04-06T09:21:03;8.02;;;7.22;;
44145;SDS011;29809;52.432;4.780;2023-04-06T09:23:28;9.88;;;7.78;;
44145;SDS011;29809;52.432;4.780;2023-04-06T09:26:10;8.57;;;7.60;;
44145;SDS011;29809;52.432;4.780;2023-04-06T09:28:50;8.73;;;7.80;;
44145;SDS011;29809;52.432;4.780;2023-04-06T09:31:20;8.93;;;8.02;;
44145;SDS011;29809;52.432;4.780;2023-04-06T09:33:46;8.27;;;7.22;;
44145;SDS011;29809;52.432;4.780;2023-04-06T09:36:12;8.82;;;7.70;;
44145;SDS011;29809;52.432;4.780;2023-04-06T09:38:39;8.30;;;7.50;;
44145;SDS011;29809;52.432;4.780;2023-04-06T09:41:05;7.82;;;7.00;;
44145;SDS011;29809;52.432;4.780;2023-04-06T09:43:30;7.10;;;6.40;;
44145;SDS011;29809;52.432;4.780;2023-04-06T09:45:56;7.97;;;7.10;;
44145;SDS011;29809;52.432;4.780;2023-04-06T09:48:22;9.18;;;7.40;;
44145;SDS011;29809;52.432;4.780;2023-04-06T09:50:49;10.23;;;7.18;;
44145;SDS011;29809;52.432;4.780;2023-04-06T09:53:14;6.75;;;5.88;;
44145;SDS011;29809;52.432;4.780;2023-04-06T09:55:41;9.13;;;7.78;;
44145;SDS011;29809;52.432;4.780;2023-04-06T09:58:09;7.78;;;6.97;;
44145;SDS011;29809;52.432;4.780;2023-04-06T10:00:47;9.05;;;6.78;;
44145;SDS011;29809;52.432;4.780;2023-04-06T10:03:14;8.85;;;6.72;;
44145;SDS011;29809;52.432;4.780;2023-04-06T10:05:57;7.65;;;6.50;;
44145;SDS011;29809;52.432;4.780;2023-04-06T10:08:25;8.02;;;6.95;;
44145;SDS011;29809;52.432;4.780;2023-04-06T10:10:53;7.43;;;6.70;;
44145;SDS011;29809;52.432;4.780;2023-04-06T10:13:18;6.80;;;6.10;;
44145;SDS011;29809;52.432;4.780;2023-04-06T10:15:44;8.27;;;6.88;;
44145;SDS011;29809;52.432;4.780;2023-04-06T10:18:09;9.40;;;7.05;;
44145;SDS011;29809;52.432;4.780;2023-04-06T10:23:13;8.82;;;6.80;;
44145;SDS011;29809;52.432;4.780;2023-04-06T10:25:51;8.27;;;6.82;;
44145;SDS011;29809;52.432;4.780;2023-04-06T10:28:16;7.20;;;6.40;;
44145;SDS011;29809;52.432;4.780;2023-04-06T10:30:44;8.73;;;6.82;;
44145;SDS011;29809;52.432;4.780;2023-04-06T10:33:12;7.85;;;6.05;;
44145;SDS011;29809;52.432;4.780;2023-04-06T10:35:38;6.97;;;5.40;;
44145;SDS011;29809;52.432;4.780;2023-04-06T10:38:04;7.18;;;6.28;;
44145;SDS011;29809;52.432;4.780;2023-04-06T10:40:29;7.53;;;6.18;;
44145;SDS011;29809;52.432;4.780;2023-04-06T10:43:06;6.75;;;6.05;;
44145;SDS011;29809;52.432;4.780;2023-04-06T10:45:31;10.05;;;6.32;;
44145;SDS011;29809;52.432;4.780;2023-04-06T10:47:56;7.03;;;6.28;;
44145;SDS011;29809;52.432;4.780;2023-04-06T10:50:22;7.10;;;6.40;;
44145;SDS011;29809;52.432;4.780;2023-04-06T10:52:58;6.03;;;5.25;;
44145;SDS011;29809;52.432;4.780;2023-04-06T10:55:23;6.30;;;5.70;;
44145;SDS011;29809;52.432;4.780;2023-04-06T10:57:50;6.05;;;5.15;;
44145;SDS011;29809;52.432;4.780;2023-04-06T11:00:16;8.75;;;5.10;;
44145;SDS011;29809;52.432;4.780;2023-04-06T11:02:42;6.43;;;5.35;;
44145;SDS011;29809;52.432;4.780;2023-04-06T11:05:07;5.63;;;4.63;;
44145;SDS011;29809;52.432;4.780;2023-04-06T11:07:32;6.85;;;4.82;;
44145;SDS011;29809;52.432;4.780;2023-04-06T11:09:57;6.57;;;4.30;;
44145;SDS011;29809;52.432;4.780;2023-04-06T11:12:24;6.80;;;4.88;;
44145;SDS011;29809;52.432;4.780;2023-04-06T11:14:59;6.63;;;4.35;;
44145;SDS011;29809;52.432;4.780;2023-04-06T11:17:29;6.05;;;4.45;;
44145;SDS011;29809;52.432;4.780;2023-04-06T11:19:54;4.72;;;4.30;;
44145;SDS011;29809;52.432;4.780;2023-04-06T11:22:20;4.65;;;4.07;;
44145;SDS011;29809;52.432;4.780;2023-04-06T11:24:45;4.22;;;3.78;;
44145;SDS011;29809;52.432;4.780;2023-04-06T11:27:10;4.00;;;3.60;;
44145;SDS011;29809;52.432;4.780;2023-04-06T11:29:36;4.70;;;4.00;;
44145;SDS011;29809;52.432;4.780;2023-04-06T11:32:06;5.15;;;4.18;;
44145;SDS011;29809;52.432;4.780;2023-04-06T11:34:38;4.32;;;3.75;;
44145;SDS011;29809;52.432;4.780;2023-04-06T11:37:08;4.45;;;3.90;;
44145;SDS011;29809;52.432;4.780;2023-04-06T11:39:53;3.70;;;3.40;;
44145;SDS011;29809;52.432;4.780;2023-04-06T11:44:49;3.80;;;3.08;;
44145;SDS011;29809;52.432;4.780;2023-04-06T11:47:15;3.83;;;3.20;;
44145;SDS011;29809;52.432;4.780;2023-04-06T11:49:41;3.63;;;3.25;;
44145;SDS011;29809;52.432;4.780;2023-04-06T11:52:16;3.42;;;3.13;;
44145;SDS011;29809;52.432;4.780;2023-04-06T11:54:42;3.58;;;3.10;;
44145;SDS011;29809;52.432;4.780;2023-04-06T11:57:07;4.32;;;3.80;;
44145;SDS011;29809;52.432;4.780;2023-04-06T11:59:33;3.45;;;3.13;;
44145;SDS011;29809;52.432;4.780;2023-04-06T12:01:58;3.97;;;3.55;;
44145;SDS011;29809;52.432;4.780;2023-04-06T12:04:23;5.75;;;3.55;;
44145;SDS011;29809;52.432;4.780;2023-04-06T12:06:49;3.42;;;3.10;;
44145;SDS011;29809;52.432;4.780;2023-04-06T12:09:14;3.58;;;2.97;;
44145;SDS011;29809;52.432;4.780;2023-04-06T12:11:40;3.53;;;2.70;;
44145;SDS011;29809;52.432;4.780;2023-04-06T12:14:06;4.18;;;3.00;;
44145;SDS011;29809;52.432;4.780;2023-04-06T12:16:32;4.10;;;3.28;;
44145;SDS011;29809;52.432;4.780;2023-04-06T12:18:57;3.10;;;2.80;;
44145;SDS011;29809;52.432;4.780;2023-04-06T12:21:22;3.53;;;2.70;;
44145;SDS011;29809;52.432;4.780;2023-04-06T12:23:48;3.30;;;2.83;;
44145;SDS011;29809;52.432;4.780;2023-04-06T12:26:13;3.97;;;2.70;;
44145;SDS011;29809;52.432;4.780;2023-04-06T12:28:38;2.60;;;2.40;;
44145;SDS011;29809;52.432;4.780;2023-04-06T12:31:04;3.88;;;2.28;;
44145;SDS011;29809;52.432;4.780;2023-04-06T12:33:29;4.07;;;2.60;;
44145;SDS011;29809;52.432;4.780;2023-04-06T12:35:54;2.58;;;2.38;;
44145;SDS011;29809;52.432;4.780;2023-04-06T12:38:20;3.05;;;2.50;;
44145;SDS011;29809;52.432;4.780;2023-04-06T12:40:45;3.50;;;2.53;;
44145;SDS011;29809;52.432;4.780;2023-04-06T12:43:10;3.35;;;2.40;;
44145;SDS011;29809;52.432;4.780;2023-04-06T12:45:35;2.42;;;2.22;;
44145;SDS011;29809;52.432;4.780;2023-04-06T12:48:01;2.85;;;2.42;;
44145;SDS011;29809;52.432;4.780;2023-04-06T12:50:26;2.25;;;2.08;;
44145;SDS011;29809;52.432;4.780;2023-04-06T12:52:51;3.05;;;2.40;;
44145;SDS011;29809;52.432;4.780;2023-04-06T12:55:17;2.60;;;2.40;;
44145;SDS011;29809;52.432;4.780;2023-04-06T12:57:42;3.05;;;2.42;;
44145;SDS011;29809;52.432;4.780;2023-04-06T13:00:08;2.80;;;2.05;;
44145;SDS011;29809;52.432;4.780;2023-04-06T13:02:33;2.42;;;2.08;;
44145;SDS011;29809;52.432;4.780;2023-04-06T13:04:58;2.40;;;2.17;;
44145;SDS011;29809;52.432;4.780;2023-04-06T13:07:24;2.17;;;2.08;;
44145;SDS011;29809;52.432;4.780;2023-04-06T13:09:49;2.80;;;2.35;;
44145;SDS011;29809;52.432;4.780;2023-04-06T13:12:15;3.85;;;2.97;;
44145;SDS011;29809;52.432;4.780;2023-04-06T13:14:41;2.17;;;1.98;;
44145;SDS011;29809;52.432;4.780;2023-04-06T13:17:06;2.45;;;2.10;;
44145;SDS011;29809;52.432;4.780;2023-04-06T13:19:32;2.10;;;1.90;;
44145;SDS011;29809;52.432;4.780;2023-04-06T13:21:57;3.63;;;2.08;;
44145;SDS011;29809;52.432;4.780;2023-04-06T13:24:22;2.53;;;2.33;;
44145;SDS011;29809;52.432;4.780;2023-04-06T13:26:48;1.73;;;1.63;;
44145;SDS011;29809;52.432;4.780;2023-04-06T13:29:13;2.63;;;2.20;;
44145;SDS011;29809;52.432;4.780;2023-04-06T13:31:38;2.28;;;2.08;;
44145;SDS011;29809;52.432;4.780;2023-04-06T13:34:04;2.05;;;1.80;;
44145;SDS011;29809;52.432;4.780;2023-04-06T13:36:29;2.67;;;2.25;;
44145;SDS011;29809;52.432;4.780;2023-04-06T13:38:55;1.95;;;1.85;;
44145;SDS011;29809;52.432;4.780;2023-04-06T13:41:21;2.53;;;2.22;;
44145;SDS011;29809;52.432;4.780;2023-04-06T13:43:46;3.33;;;2.42;;
44145;SDS011;29809;52.432;4.780;2023-04-06T13:46:11;2.45;;;2.25;;
44145;SDS011;29809;52.432;4.780;2023-04-06T13:48:37;2.13;;;1.92;;
44145;SDS011;29809;52.432;4.780;2023-04-06T13:51:12;2.10;;;1.90;;
44145;SDS011;29809;52.432;4.780;2023-04-06T13:53:37;3.05;;;1.95;;
44145;SDS011;29809;52.432;4.780;2023-04-06T13:56:03;2.40;;;2.20;;
44145;SDS011;29809;52.432;4.780;2023-04-06T13:58:28;2.20;;;2.00;;
44145;SDS011;29809;52.432;4.780;2023-04-06T14:00:53;2.95;;;2.15;;
44145;SDS011;29809;52.432;4.780;2023-04-06T14:03:19;2.33;;;2.13;;
44145;SDS011;29809;52.432;4.780;2023-04-06T14:05:44;2.33;;;2.13;;
44145;SDS011;29809;52.432;4.780;2023-04-06T14:08:10;2.38;;;2.17;;
44145;SDS011;29809;52.432;4.780;2023-04-06T14:10:38;2.30;;;2.10;;
44145;SDS011;29809;52.432;4.780;2023-04-06T14:13:05;2.30;;;2.10;;
44145;SDS011;29809;52.432;4.780;2023-04-06T14:15:30;2.45;;;2.20;;
44145;SDS011;29809;52.432;4.780;2023-04-06T14:17:55;2.40;;;2.20;;
44145;SDS011;29809;52.432;4.780;2023-04-06T14:20:21;1.98;;;1.77;;
44145;SDS011;29809;52.432;4.780;2023-04-06T14:22:46;2.20;;;2.00;;
44145;SDS011;29809;52.432;4.780;2023-04-06T14:25:13;2.53;;;2.33;;
44145;SDS011;29809;52.432;4.780;2023-04-06T14:27:40;2.20;;;2.00;;
44145;SDS011;29809;52.432;4.780;2023-04-06T14:30:06;2.53;;;2.33;;
44145;SDS011;29809;52.432;4.780;2023-04-06T14:32:31;1.90;;;1.70;;
44145;SDS011;29809;52.432;4.780;2023-04-06T14:34:57;1.83;;;1.70;;
44145;SDS011;29809;52.432;4.780;2023-04-06T14:37:22;1.95;;;1.65;;
44145;SDS011;29809;52.432;4.780;2023-04-06T14:39:47;2.03;;;1.83;;